createdAt,value
2023-03-02T00:03:33.533Z,99676.41
2023-03-02T00:08:36.547Z,99586.38
2023-03-02T00:13:38.862Z,99636.16
2023-03-02T00:18:40.550Z,99759.38
2023-03-02T00:23:42.224Z,99690.97
2023-03-02T00:28:43.832Z,99744.94
2023-03-02T00:33:45.494Z,99715.84
2023-03-02T00:38:47.874Z,99512.72
2023-03-02T00:43:50.824Z,99738.69
2023-03-02T00:48:52.712Z,99556.38
2023-03-02T00:53:54.357Z,99702.69
2023-03-02T00:58:55.972Z,99670.06
2023-03-02T01:03:57.576Z,99656.28
2023-03-02T01:08:59.141Z,99637.53
2023-03-02T01:14:00.755Z,99444.78
2023-03-02T01:19:02.294Z,99631.28
2023-03-02T01:24:04.162Z,99596.56
2023-03-02T01:29:05.793Z,99534.00
2023-03-02T01:34:07.622Z,99702.97
2023-03-02T01:39:09.156Z,99600.13
2023-03-02T01:44:32.537Z,99463.78
2023-03-02T01:49:37.970Z,99479.84
2023-03-02T01:54:42.606Z,99719.47
2023-03-02T01:59:44.220Z,99589.06
2023-03-02T02:04:48.907Z,99520.94
2023-03-02T02:09:52.717Z,99577.84
2023-03-02T02:14:55.949Z,99532.47
2023-03-02T02:20:26.829Z,99469.28
2023-03-02T02:25:53.499Z,99554.09
2023-03-02T02:31:13.434Z,99733.44
2023-03-02T02:36:20.447Z,99686.31
2023-03-02T02:41:27.101Z,99530.81
2023-03-02T02:46:29.304Z,99625.41
2023-03-02T02:51:31.096Z,99494.22
2023-03-02T02:56:36.583Z,99557.78
2023-03-02T03:01:38.251Z,99451.75
2023-03-02T03:06:50.887Z,99525.59
2023-03-02T03:12:17.504Z,99518.31
2023-03-02T03:17:19.210Z,99436.72
2023-03-02T03:22:20.886Z,99532.19
2023-03-02T03:27:23.605Z,99515.03
2023-03-02T03:32:25.278Z,99659.28
2023-03-02T03:37:27.348Z,99639.56
2023-03-02T03:42:28.999Z,99602.25
2023-03-02T03:47:30.584Z,99581.28
2023-03-02T03:52:32.182Z,99669.56
2023-03-02T03:57:33.925Z,99619.75
2023-03-02T04:02:35.509Z,99600.44
2023-03-02T04:07:38.026Z,99507.72
2023-03-02T04:12:41.223Z,99586.94
2023-03-02T04:17:44.957Z,99738.25
2023-03-02T04:22:48.822Z,99566.88
2023-03-02T04:27:51.745Z,99527.59
2023-03-02T04:32:54.119Z,99570.78
2023-03-02T04:37:55.789Z,99489.53
2023-03-02T04:42:57.383Z,99619.44
2023-03-02T04:47:59.042Z,99535.00
2023-03-02T04:53:00.729Z,99716.44
2023-03-02T04:58:02.322Z,99512.31
2023-03-02T05:05:32.869Z,99469.84
2023-03-02T05:10:34.479Z,99597.06
2023-03-02T05:15:38.993Z,99594.31
2023-03-02T05:20:40.714Z,99594.09
2023-03-02T05:25:42.321Z,99728.53
2023-03-02T05:30:43.884Z,99571.44
2023-03-02T05:35:46.237Z,99664.56
2023-03-02T05:40:48.995Z,99555.03
2023-03-02T05:45:50.746Z,99545.00
2023-03-02T05:50:52.750Z,99589.19
2023-03-02T05:55:54.516Z,99453.34
2023-03-02T06:00:56.105Z,99480.53
2023-03-02T06:05:57.729Z,99419.16
2023-03-02T06:10:59.434Z,99601.59
2023-03-02T06:16:01.058Z,99637.97
2023-03-02T06:21:03.378Z,99503.59
2023-03-02T06:26:10.374Z,99459.41
2023-03-02T06:31:12.005Z,99644.06
2023-03-02T06:36:15.158Z,99502.81
2023-03-02T06:41:16.895Z,99450.09
2023-03-02T06:46:18.656Z,99581.56
2023-03-02T06:51:20.316Z,99484.41
2023-03-02T06:56:21.949Z,99512.09
2023-03-02T07:01:23.574Z,99760.41
2023-03-02T07:06:25.190Z,99475.19
2023-03-02T07:11:26.923Z,99506.41
2023-03-02T07:16:29.095Z,99571.50
2023-03-02T07:21:30.967Z,99559.31
2023-03-02T07:26:33.054Z,99742.22
2023-03-02T07:31:35.091Z,99596.00
2023-03-02T07:36:36.801Z,99484.00
2023-03-02T07:41:38.455Z,99512.63
2023-03-02T07:46:40.101Z,99662.09
2023-03-02T07:51:41.901Z,99618.88
2023-03-02T07:56:43.785Z,99691.28
2023-03-02T08:01:45.377Z,99572.66
2023-03-02T08:06:47.050Z,99676.66
2023-03-02T08:11:48.606Z,99603.06
2023-03-02T08:16:52.867Z,99672.22
2023-03-02T08:21:54.550Z,99755.63
2023-03-02T08:26:56.221Z,99535.34
2023-03-02T08:31:59.201Z,99696.59
2023-03-02T08:37:00.826Z,99656.88
2023-03-02T08:42:02.436Z,99633.41
2023-03-02T08:47:04.085Z,99690.94
2023-03-02T08:52:06.464Z,99756.69
2023-03-02T08:57:11.626Z,99767.81
2023-03-02T09:02:13.345Z,99668.84
2023-03-02T09:07:17.338Z,99579.28
2023-03-02T09:12:19.293Z,99727.25
2023-03-02T09:17:20.928Z,99708.97
2023-03-02T09:22:22.485Z,99715.94
2023-03-02T09:27:24.098Z,99680.47
2023-03-02T09:32:25.840Z,99785.84
2023-03-02T09:37:28.953Z,99735.13
2023-03-02T09:42:49.510Z,99617.19
2023-03-02T09:48:36.870Z,99694.69
2023-03-02T09:53:52.144Z,99756.47
2023-03-02T09:59:05.153Z,99679.59
2023-03-02T10:04:18.583Z,99733.22
2023-03-02T10:09:20.258Z,99751.06
2023-03-02T10:14:31.333Z,99717.94
2023-03-02T10:19:42.274Z,99805.94
2023-03-02T10:24:57.762Z,99709.16
2023-03-02T10:30:21.741Z,99720.69
2023-03-02T10:35:26.438Z,99768.50
2023-03-02T10:40:45.872Z,99791.50
2023-03-02T10:46:07.421Z,99728.66
2023-03-02T10:51:27.613Z,99704.94
2023-03-02T10:56:30.176Z,99836.88
2023-03-02T11:06:32.349Z,99792.78
2023-03-02T11:11:34.739Z,99749.13
2023-03-02T11:16:36.681Z,99751.47
2023-03-02T11:21:58.969Z,99696.84
2023-03-02T11:27:07.621Z,99769.41
2023-03-02T11:32:09.302Z,99756.28
2023-03-02T11:37:21.651Z,99773.47
2023-03-02T11:42:33.684Z,99698.78
2023-03-02T11:47:37.688Z,99713.47
2023-03-02T11:52:46.430Z,99787.22
2023-03-02T11:58:13.989Z,99757.47
2023-03-02T12:03:15.492Z,99774.00
2023-03-02T12:08:20.220Z,99666.38
2023-03-02T12:13:30.151Z,99671.81
2023-03-02T12:18:44.162Z,99761.16
2023-03-02T12:23:45.624Z,99774.41
2023-03-02T12:29:07.577Z,99716.81
2023-03-02T12:34:51.659Z,99632.16
2023-03-02T12:40:17.865Z,99769.00
2023-03-02T12:45:25.170Z,99677.94
2023-03-02T12:50:30.972Z,99641.94
2023-03-02T12:55:34.427Z,99729.78
2023-03-02T13:00:36.162Z,99704.72
2023-03-02T13:05:37.980Z,99712.00
2023-03-02T13:10:48.332Z,99761.88
2023-03-02T13:16:08.392Z,99739.66
2023-03-02T13:21:14.936Z,99670.69
2023-03-02T13:26:42.796Z,99687.09
2023-03-02T13:31:44.827Z,99701.88
2023-03-02T13:36:46.629Z,99745.16
2023-03-02T13:41:54.305Z,99631.44
2023-03-02T13:46:56.233Z,99689.16
2023-03-02T13:52:29.253Z,99679.59
2023-03-02T13:57:33.170Z,99733.13
2023-03-02T14:02:34.777Z,99704.56
2023-03-02T14:07:36.522Z,99692.44
2023-03-02T14:12:38.402Z,99656.69
2023-03-02T14:17:41.065Z,99682.59
2023-03-02T14:22:44.502Z,99673.78
2023-03-02T14:27:47.528Z,99670.50
2023-03-02T14:32:49.141Z,99684.00
2023-03-02T14:37:50.950Z,99744.16
2023-03-02T14:42:53.263Z,99741.56
2023-03-02T14:47:54.850Z,99665.53
2023-03-02T14:52:58.104Z,99649.53
2023-03-02T14:58:04.127Z,99678.31
2023-03-02T15:03:05.711Z,99721.72
2023-03-02T15:08:11.952Z,99670.69
2023-03-02T15:13:14.472Z,99628.41
2023-03-02T15:18:19.583Z,99691.69
2023-03-02T15:23:21.314Z,99688.47
2023-03-02T15:28:22.888Z,99657.88
2023-03-02T15:33:24.482Z,99651.63
2023-03-02T15:38:26.554Z,99657.66
2023-03-02T15:43:28.195Z,99688.00
2023-03-02T15:48:30.148Z,99653.34
2023-03-02T15:53:36.108Z,99682.91
2023-03-02T15:58:40.594Z,99690.81
2023-03-02T16:03:43.423Z,99691.47
2023-03-02T16:08:45.422Z,99677.78
2023-03-02T16:13:47.083Z,99713.75
2023-03-02T16:18:52.976Z,99706.81
2023-03-02T16:23:56.264Z,99661.53
2023-03-02T16:28:59.331Z,99767.13
2023-03-02T16:34:06.239Z,99713.94
2023-03-02T16:39:09.536Z,99667.00
2023-03-02T16:44:13.460Z,99694.91
2023-03-02T16:49:15.200Z,99701.22
2023-03-02T16:54:17.294Z,99670.00
2023-03-02T16:59:18.881Z,99707.88
2023-03-02T17:04:22.023Z,99711.03
2023-03-02T17:09:23.606Z,99760.50
2023-03-02T17:14:25.921Z,99694.94
2023-03-02T17:19:29.398Z,99808.78
2023-03-02T17:24:31.380Z,99826.25
2023-03-02T17:29:32.950Z,99710.38
2023-03-02T17:34:34.655Z,99633.53
2023-03-02T17:39:36.322Z,99656.69
2023-03-02T17:44:40.223Z,99697.25
2023-03-02T17:49:45.396Z,99745.91
2023-03-02T17:54:46.996Z,99756.13
2023-03-02T17:59:51.549Z,99668.34
2023-03-02T18:04:53.232Z,99808.97
2023-03-02T18:09:54.862Z,99738.09
2023-03-02T18:14:56.569Z,99754.13
2023-03-02T18:19:58.254Z,99738.44
2023-03-02T18:24:59.897Z,99844.56
2023-03-02T18:30:01.708Z,99755.97
2023-03-02T18:35:03.471Z,99763.78
2023-03-02T18:40:06.562Z,99805.44
2023-03-02T18:45:08.980Z,99847.34
2023-03-02T18:50:11.751Z,99814.41
2023-03-02T18:55:13.445Z,99786.59
2023-03-02T19:00:19.495Z,99843.25
2023-03-02T19:05:21.678Z,99764.84
2023-03-02T19:10:23.378Z,99805.53
2023-03-02T19:15:25.100Z,99881.78
2023-03-02T19:20:27.452Z,99814.88
2023-03-02T19:25:29.231Z,99869.09
2023-03-02T19:30:30.931Z,99847.75
2023-03-02T19:35:33.731Z,99815.22
2023-03-02T19:40:36.557Z,99775.59
2023-03-02T19:45:38.365Z,99789.81
2023-03-02T19:50:40.764Z,99823.19
2023-03-02T19:55:42.986Z,99780.34
2023-03-02T20:00:45.802Z,99797.69
2023-03-02T20:05:47.482Z,99856.38
2023-03-02T20:10:49.712Z,99819.88
2023-03-02T20:15:51.801Z,99869.34
2023-03-02T20:20:53.485Z,99759.97
2023-03-02T20:25:55.164Z,99825.19
2023-03-02T20:31:00.575Z,99838.56
2023-03-02T20:36:03.888Z,99867.00
2023-03-02T20:41:06.722Z,99906.56
2023-03-02T20:46:10.063Z,99744.38
2023-03-02T20:51:12.319Z,99872.53
2023-03-02T20:56:18.565Z,99842.94
2023-03-02T21:01:21.188Z,99846.38
2023-03-02T21:06:22.933Z,99888.19
2023-03-02T21:11:24.642Z,99808.78
2023-03-02T21:16:30.197Z,99847.56
2023-03-02T21:21:41.150Z,99982.47
2023-03-02T21:26:45.238Z,99998.56
2023-03-02T21:31:47.866Z,99767.84
2023-03-02T21:36:53.578Z,99771.59
2023-03-02T21:41:55.502Z,99794.69
2023-03-02T21:46:57.188Z,99806.72
2023-03-02T21:51:58.950Z,99789.69
2023-03-02T21:57:00.560Z,99934.66
2023-03-02T22:02:02.303Z,99802.81
2023-03-02T22:07:04.047Z,99757.59
2023-03-02T22:12:13.788Z,99896.84
2023-03-02T22:17:24.900Z,99878.78
2023-03-02T22:22:30.156Z,99861.09
2023-03-02T22:27:32.183Z,99896.50
2023-03-02T22:32:38.388Z,99788.25
2023-03-02T22:37:40.042Z,99933.66
2023-03-02T22:42:41.662Z,99742.38
2023-03-02T22:47:44.797Z,99896.91
2023-03-02T22:52:46.453Z,99872.03
2023-03-02T22:57:48.133Z,99783.91
2023-03-02T23:02:56.779Z,99816.25
2023-03-02T23:08:30.393Z,99901.38
2023-03-02T23:13:39.803Z,99854.38
2023-03-02T23:18:43.108Z,99768.50
2023-03-02T23:23:44.778Z,99826.03
2023-03-02T23:28:48.517Z,99814.03
2023-03-02T23:33:50.114Z,99855.56
2023-03-02T23:38:51.957Z,99880.22
2023-03-02T23:43:53.917Z,99857.88
2023-03-02T23:48:56.205Z,99849.63
2023-03-02T23:53:57.803Z,99878.53
2023-03-02T23:58:59.606Z,99940.44
